createdAt,value
2023-04-18T00:01:40.778Z,98625.72
2023-04-18T00:04:46.403Z,98617.97
2023-04-18T00:07:49.418Z,98621.44
2023-04-18T00:10:52.237Z,98619.88
2023-04-18T00:13:57.506Z,98609.66
2023-04-18T00:17:01.432Z,98612.34
2023-04-18T00:20:07.138Z,98616.44
2023-04-18T00:23:14.078Z,98616.69
2023-04-18T00:26:16.915Z,98603.84
2023-04-18T00:29:20.890Z,98604.66
2023-04-18T00:32:23.633Z,98597.16
2023-04-18T00:35:26.376Z,98591.31
2023-04-18T00:38:29.033Z,98595.88
2023-04-18T00:41:31.719Z,98594.50
2023-04-18T00:44:35.668Z,98597.19
2023-04-18T00:47:38.449Z,98590.53
2023-04-18T00:50:41.903Z,98588.88
2023-04-18T00:53:45.975Z,98591.06
2023-04-18T00:56:49.235Z,98584.94
2023-04-18T00:59:53.438Z,98590.28
2023-04-18T01:02:56.429Z,98583.63
2023-04-18T01:06:01.037Z,98574.00
2023-04-18T01:09:05.549Z,98576.91
2023-04-18T01:12:08.276Z,98575.28
2023-04-18T01:15:12.791Z,98572.06
2023-04-18T01:18:16.902Z,98564.06
2023-04-18T01:21:20.104Z,98565.63
2023-04-18T01:24:26.749Z,98559.50
2023-04-18T01:27:29.428Z,98568.88
2023-04-18T01:30:32.150Z,98560.06
2023-04-18T01:33:34.839Z,98549.88
2023-04-18T01:36:39.631Z,98547.75
2023-04-18T01:39:43.646Z,98548.81
2023-04-18T01:42:46.434Z,98547.75
2023-04-18T01:45:49.081Z,98546.94
2023-04-18T01:48:51.929Z,98545.31
2023-04-18T01:51:54.654Z,98549.88
2023-04-18T01:54:58.602Z,98546.66
2023-04-18T01:58:01.847Z,98539.69
2023-04-18T02:01:04.763Z,98537.56
2023-04-18T02:04:07.602Z,98535.41
2023-04-18T02:07:10.496Z,98538.88
2023-04-18T02:10:14.485Z,98536.97
2023-04-18T02:13:17.116Z,98543.94
2023-04-18T02:16:19.812Z,98531.34
2023-04-18T02:19:22.508Z,98538.00
2023-04-18T02:22:25.226Z,98540.13
2023-04-18T02:25:29.406Z,98544.16
2023-04-18T02:28:32.066Z,98539.06
2023-04-18T02:31:34.872Z,98542.81
2023-04-18T02:34:37.951Z,98541.72
2023-04-18T02:37:40.777Z,98540.88
2023-04-18T02:40:44.773Z,98541.97
2023-04-18T02:43:47.635Z,98536.88
2023-04-18T02:46:50.485Z,98537.13
2023-04-18T02:49:53.324Z,98532.84
2023-04-18T02:52:56.845Z,98531.25
2023-04-18T02:56:01.208Z,98539.56
2023-04-18T02:59:03.824Z,98534.69
2023-04-18T03:02:06.561Z,98531.47
2023-04-18T03:05:09.450Z,98545.41
2023-04-18T03:08:12.295Z,98537.63
2023-04-18T03:11:16.410Z,98538.13
2023-04-18T03:14:19.034Z,98537.34
2023-04-18T03:17:21.721Z,98538.31
2023-04-18T03:20:24.459Z,98538.38
2023-04-18T03:23:27.127Z,98534.31
2023-04-18T03:26:31.856Z,98540.13
2023-04-18T03:29:34.537Z,98538.81
2023-04-18T03:32:37.273Z,98542.72
2023-04-18T03:35:39.986Z,98546.19
2023-04-18T03:38:42.795Z,98541.84
2023-04-18T03:41:46.777Z,98537.31
2023-04-18T03:44:50.590Z,98539.09
2023-04-18T03:47:53.256Z,98540.16
2023-04-18T03:50:56.031Z,98535.38
2023-04-18T03:53:58.884Z,98536.44
2023-04-18T03:57:03.149Z,98539.09
2023-04-18T04:00:08.182Z,98539.63
2023-04-18T04:03:11.378Z,98540.38
2023-04-18T04:06:14.299Z,98541.72
2023-04-18T04:09:17.015Z,98547.75
2023-04-18T04:12:21.027Z,98550.09
2023-04-18T04:15:23.871Z,98554.13
2023-04-18T04:18:31.015Z,98551.06
2023-04-18T04:21:33.920Z,98549.03
2023-04-18T04:24:38.486Z,98547.41
2023-04-18T04:27:42.785Z,98541.50
2023-04-18T04:30:45.594Z,98544.97
2023-04-18T04:33:48.209Z,98544.97
2023-04-18T04:36:51.069Z,98542.00
2023-04-18T04:39:53.681Z,98546.78
2023-04-18T04:42:58.570Z,98554.25
2023-04-18T04:46:02.843Z,98554.44
2023-04-18T04:49:05.520Z,98557.66
2023-04-18T04:52:08.209Z,98558.78
2023-04-18T04:55:11.417Z,98559.66
2023-04-18T04:58:15.865Z,98553.44
2023-04-18T05:01:18.646Z,98564.38
2023-04-18T05:04:21.717Z,98563.38
2023-04-18T05:07:24.888Z,98560.38
2023-04-18T05:10:27.630Z,98563.13
2023-04-18T05:13:31.694Z,98568.22
2023-04-18T05:16:34.460Z,98565.06
2023-04-18T05:19:37.282Z,98560.25
2023-04-18T05:22:40.157Z,98570.41
2023-04-18T05:25:43.090Z,98574.69
2023-04-18T05:28:47.152Z,98563.47
2023-04-18T05:31:49.820Z,98570.75
2023-04-18T05:34:52.451Z,98567.81
2023-04-18T05:37:55.188Z,98574.78
2023-04-18T05:41:00.223Z,98571.91
2023-04-18T05:44:05.600Z,98567.94
2023-04-18T05:47:19.840Z,98578.69
2023-04-18T05:50:23.094Z,98566.66
2023-04-18T05:53:25.805Z,98571.25
2023-04-18T05:56:28.517Z,98580.97
2023-04-18T05:59:32.517Z,98576.66
2023-04-18T06:02:35.281Z,98585.50
2023-04-18T06:05:38.299Z,98578.38
2023-04-18T06:08:41.271Z,98583.00
2023-04-18T06:11:43.878Z,98582.78
2023-04-18T06:14:47.856Z,98587.94
2023-04-18T06:17:50.448Z,98590.09
2023-04-18T06:20:53.055Z,98594.41
2023-04-18T06:23:55.732Z,98591.75
2023-04-18T06:26:58.481Z,98607.53
2023-04-18T06:30:02.521Z,98600.59
2023-04-18T06:33:05.311Z,98600.31
2023-04-18T06:36:08.957Z,98599.50
2023-04-18T06:39:11.692Z,98604.09
2023-04-18T06:42:14.657Z,98605.94
2023-04-18T06:45:18.709Z,98604.09
2023-04-18T06:48:21.582Z,98597.91
2023-04-18T06:51:24.196Z,98598.97
2023-04-18T06:54:26.893Z,98599.03
2023-04-18T06:57:29.916Z,98600.06
2023-04-18T07:00:33.882Z,98607.81
2023-04-18T07:03:36.627Z,98609.44
2023-04-18T07:06:39.335Z,98611.09
2023-04-18T07:09:41.919Z,98611.38
2023-04-18T07:12:44.567Z,98600.69
2023-04-18T07:15:48.689Z,98606.03
2023-04-18T07:18:51.746Z,98607.13
2023-04-18T07:21:55.889Z,98614.91
2023-04-18T07:24:58.488Z,98608.78
2023-04-18T07:28:01.042Z,98601.06
2023-04-18T07:31:05.146Z,98608.84
2023-04-18T07:34:08.946Z,98610.22
2023-04-18T07:37:14.650Z,98609.44
2023-04-18T07:40:17.614Z,98615.91
2023-04-18T07:43:21.033Z,98615.66
2023-04-18T07:46:25.196Z,98619.97
2023-04-18T07:49:28.592Z,98614.09
2023-04-18T07:52:31.252Z,98621.91
2023-04-18T07:55:33.907Z,98620.59
2023-04-18T07:58:36.762Z,98614.91
2023-04-18T08:01:40.792Z,98614.25
2023-04-18T08:04:43.630Z,98614.66
2023-04-18T08:07:46.512Z,98616.06
2023-04-18T08:10:49.105Z,98620.13
2023-04-18T08:13:51.712Z,98619.34
2023-04-18T08:16:55.654Z,98610.81
2023-04-18T08:19:58.699Z,98611.13
2023-04-18T08:23:08.447Z,98613.28
2023-04-18T08:26:13.149Z,98611.94
2023-04-18T08:29:15.956Z,98610.34
2023-04-18T08:32:20.081Z,98609.53
2023-04-18T08:35:22.769Z,98612.97
2023-04-18T08:38:25.852Z,98625.34
2023-04-18T08:41:29.543Z,98621.34
2023-04-18T08:44:32.735Z,98621.88
2023-04-18T08:47:37.269Z,98621.34
2023-04-18T08:50:39.962Z,98628.59
2023-04-18T08:53:44.671Z,98629.44
2023-04-18T08:56:47.805Z,98627.28
2023-04-18T08:59:51.268Z,98628.31
2023-04-18T09:02:57.081Z,98627.25
2023-04-18T09:06:08.312Z,98629.97
2023-04-18T09:09:11.022Z,98634.25
2023-04-18T09:12:15.223Z,98636.38
2023-04-18T09:15:20.181Z,98634.75
2023-04-18T09:18:24.195Z,98635.00
2023-04-18T09:21:27.865Z,98630.47
2023-04-18T09:24:32.410Z,98636.13
2023-04-18T09:27:35.876Z,98636.44
2023-04-18T09:30:39.826Z,98640.72
2023-04-18T09:33:54.082Z,98645.53
2023-04-18T09:37:10.960Z,98645.53
2023-04-18T09:40:18.584Z,98638.56
2023-04-18T09:43:22.060Z,98638.28
2023-04-18T09:46:25.340Z,98642.59
2023-04-18T09:49:29.902Z,98633.47
2023-04-18T09:52:35.768Z,98633.97
2023-04-18T09:55:42.262Z,98632.09
2023-04-18T09:58:47.953Z,98634.78
2023-04-18T10:01:51.371Z,98633.44
2023-04-18T10:04:56.882Z,98635.03
2023-04-18T10:07:59.627Z,98617.28
2023-04-18T10:11:02.537Z,98633.91
2023-04-18T10:14:08.635Z,98625.81
2023-04-18T10:17:11.899Z,98630.94
2023-04-18T10:20:21.120Z,98624.47
2023-04-18T10:23:36.486Z,98628.50
2023-04-18T10:26:50.095Z,98618.59
2023-04-18T10:30:00.938Z,98614.56
2023-04-18T10:33:30.268Z,98627.72
2023-04-18T10:36:34.369Z,98619.63
2023-04-18T10:39:52.068Z,98611.50
2023-04-18T10:43:01.075Z,98617.94
2023-04-18T10:46:27.767Z,98613.28
2023-04-18T10:49:34.364Z,98616.22
2023-04-18T10:52:36.995Z,98606.28
2023-04-18T10:55:42.918Z,98609.25
2023-04-18T10:58:51.106Z,98604.88
2023-04-18T11:01:57.983Z,98610.81
2023-04-18T11:05:04.462Z,98602.44
2023-04-18T11:08:24.217Z,98600.56
2023-04-18T11:11:26.854Z,98597.81
2023-04-18T11:14:40.417Z,98595.06
2023-04-18T11:17:45.038Z,98595.63
2023-04-18T11:20:49.167Z,98596.22
2023-04-18T11:23:51.868Z,98591.66
2023-04-18T11:26:56.393Z,98585.16
2023-04-18T11:29:59.289Z,98584.31
2023-04-18T11:33:08.388Z,98581.34
2023-04-18T11:36:11.359Z,98595.13
2023-04-18T11:39:14.310Z,98586.03
2023-04-18T11:42:17.221Z,98589.03
2023-04-18T11:45:20.190Z,98590.66
2023-04-18T11:48:25.041Z,98593.09
2023-04-18T11:51:35.657Z,98592.28
2023-04-18T11:54:40.502Z,98602.78
2023-04-18T11:57:43.116Z,98594.69
2023-04-18T12:00:45.890Z,98596.53
2023-04-18T12:04:03.400Z,98602.66
2023-04-18T12:07:06.600Z,98602.09
2023-04-18T12:10:24.422Z,98598.91
2023-04-18T12:13:32.191Z,98593.75
2023-04-18T12:16:35.058Z,98588.31
2023-04-18T12:19:39.221Z,98587.97
2023-04-18T12:22:44.496Z,98592.88
2023-04-18T12:26:01.489Z,98587.72
2023-04-18T12:29:04.591Z,98582.75
2023-04-18T12:32:07.399Z,98584.81
2023-04-18T12:35:11.722Z,98577.94
2023-04-18T12:38:14.622Z,98577.19
2023-04-18T12:41:17.244Z,98573.91
2023-04-18T12:44:20.036Z,98573.56
2023-04-18T12:47:22.820Z,98573.56
2023-04-18T12:50:27.943Z,98570.56
2023-04-18T12:53:30.690Z,98575.22
2023-04-18T12:56:33.318Z,98574.34
2023-04-18T12:59:36.517Z,98564.66
2023-04-18T13:02:40.502Z,98574.88
2023-04-18T13:05:44.824Z,98562.94
2023-04-18T13:08:47.792Z,98568.59
2023-04-18T13:11:50.595Z,98568.63
2023-04-18T13:14:53.392Z,98564.78
2023-04-18T13:17:57.176Z,98563.06
2023-04-18T13:21:01.399Z,98560.56
2023-04-18T13:24:05.402Z,98568.25
2023-04-18T13:27:11.124Z,98567.91
2023-04-18T13:30:14.466Z,98570.09
2023-04-18T13:33:17.826Z,98565.34
2023-04-18T13:36:22.403Z,98559.94
2023-04-18T13:39:25.876Z,98560.50
2023-04-18T13:42:28.564Z,98559.28
2023-04-18T13:45:31.304Z,98566.13
2023-04-18T13:48:33.992Z,98563.41
2023-04-18T13:51:38.180Z,98568.28
2023-04-18T13:54:41.434Z,98568.28
2023-04-18T13:57:44.380Z,98559.91
2023-04-18T14:00:47.166Z,98568.00
2023-04-18T14:03:50.187Z,98570.25
2023-04-18T14:06:54.481Z,98574.09
2023-04-18T14:09:57.226Z,98577.16
2023-04-18T14:13:00.640Z,98579.13
2023-04-18T14:16:04.503Z,98584.97
2023-04-18T14:19:07.739Z,98578.22
2023-04-18T14:22:12.018Z,98573.84
2023-04-18T14:25:17.079Z,98580.03
2023-04-18T14:28:22.083Z,98579.88
2023-04-18T14:31:24.885Z,98578.16
2023-04-18T14:34:27.843Z,98574.09
2023-04-18T14:37:31.943Z,98574.88
2023-04-18T14:40:34.741Z,98572.16
2023-04-18T14:43:37.593Z,98570.66
2023-04-18T14:46:40.535Z,98567.66
2023-04-18T14:49:43.257Z,98575.97
2023-04-18T14:52:47.643Z,98570.88
2023-04-18T14:55:50.527Z,98572.47
2023-04-18T14:58:53.112Z,98573.72
2023-04-18T15:01:56.075Z,98566.97
2023-04-18T15:04:59.314Z,98565.22
2023-04-18T15:08:04.473Z,98572.53
2023-04-18T15:11:07.970Z,98570.06
2023-04-18T15:14:10.718Z,98575.75
2023-04-18T15:17:13.354Z,98577.94
2023-04-18T15:20:16.136Z,98569.38
2023-04-18T15:23:20.656Z,98581.03
2023-04-18T15:26:24.156Z,98568.41
2023-04-18T15:29:26.941Z,98573.03
2023-04-18T15:32:30.089Z,98569.53
2023-04-18T15:35:32.789Z,98575.97
2023-04-18T15:38:36.716Z,98573.78
2023-04-18T15:41:39.815Z,98570.34
2023-04-18T15:44:42.518Z,98572.53
2023-04-18T15:47:45.177Z,98578.81
2023-04-18T15:50:51.236Z,98574.00
2023-04-18T15:53:55.446Z,98575.41
2023-04-18T15:56:58.166Z,98572.78
2023-04-18T16:00:00.988Z,98582.69
2023-04-18T16:03:03.774Z,98577.06
2023-04-18T16:06:06.878Z,98575.13
2023-04-18T16:09:11.184Z,98573.00
2023-04-18T16:12:14.252Z,98576.00
2023-04-18T16:15:16.895Z,98585.44
2023-04-18T16:18:19.666Z,98590.28
2023-04-18T16:21:22.377Z,98587.09
2023-04-18T16:24:26.502Z,98587.91
2023-04-18T16:27:29.268Z,98600.78
2023-04-18T16:30:32.040Z,98590.28
2023-04-18T16:33:34.729Z,98600.28
2023-04-18T16:36:37.575Z,98597.59
2023-04-18T16:39:41.542Z,98600.34
2023-04-18T16:42:44.161Z,98597.34
2023-04-18T16:45:46.871Z,98605.78
2023-04-18T16:48:51.768Z,98607.16
2023-04-18T16:51:55.087Z,98601.00
2023-04-18T16:54:59.029Z,98603.69
2023-04-18T16:58:01.710Z,98603.16
2023-04-18T17:01:04.451Z,98602.88
2023-04-18T17:04:07.084Z,98608.88
2023-04-18T17:07:09.784Z,98611.03
2023-04-18T17:10:14.107Z,98611.31
2023-04-18T17:13:16.711Z,98609.50
2023-04-18T17:16:19.372Z,98610.31
2023-04-18T17:19:22.278Z,98609.78
2023-04-18T17:22:24.895Z,98616.78
2023-04-18T17:25:29.204Z,98607.09
2023-04-18T17:28:31.850Z,98617.59
2023-04-18T17:31:35.110Z,98617.34
2023-04-18T17:34:37.809Z,98618.41
2023-04-18T17:37:40.465Z,98621.34
2023-04-18T17:40:44.472Z,98613.84
2023-04-18T17:43:47.527Z,98621.91
2023-04-18T17:46:50.642Z,98623.59
2023-04-18T17:49:53.329Z,98626.81
2023-04-18T17:52:56.023Z,98626.84
2023-04-18T17:56:00.143Z,98631.69
2023-04-18T17:59:02.995Z,98625.44
2023-04-18T18:02:05.886Z,98638.94
2023-04-18T18:05:12.799Z,98644.09
2023-04-18T18:08:15.901Z,98632.50
2023-04-18T18:11:20.473Z,98642.22
2023-04-18T18:14:23.139Z,98640.09
2023-04-18T18:17:25.893Z,98642.78
2023-04-18T18:20:29.303Z,98645.22
2023-04-18T18:23:32.172Z,98651.72
2023-04-18T18:26:36.921Z,98654.97
2023-04-18T18:29:39.548Z,98661.16
2023-04-18T18:32:42.234Z,98661.69
2023-04-18T18:35:44.818Z,98667.91
2023-04-18T18:38:47.407Z,98669.00
2023-04-18T18:41:52.099Z,98670.59
2023-04-18T18:44:54.772Z,98677.06
2023-04-18T18:47:57.441Z,98681.94
2023-04-18T18:51:00.084Z,98685.69
2023-04-18T18:54:02.716Z,98690.53
2023-04-18T18:57:06.803Z,98691.38
2023-04-18T19:00:11.933Z,98690.31
2023-04-18T19:03:18.354Z,98696.81
2023-04-18T19:06:21.125Z,98696.53
2023-04-18T19:09:23.739Z,98701.91
2023-04-18T19:12:28.200Z,98701.66
2023-04-18T19:15:31.050Z,98710.78
2023-04-18T19:18:33.704Z,98712.94
2023-04-18T19:21:36.423Z,98710.81
2023-04-18T19:24:39.076Z,98709.47
2023-04-18T19:27:43.705Z,98716.47
2023-04-18T19:30:47.127Z,98711.34
2023-04-18T19:33:50.602Z,98712.97
2023-04-18T19:36:53.204Z,98717.56
2023-04-18T19:39:55.921Z,98716.22
2023-04-18T19:42:59.903Z,98726.69
2023-04-18T19:46:02.718Z,98719.19
2023-04-18T19:49:05.712Z,98719.19
2023-04-18T19:52:08.379Z,98721.59
2023-04-18T19:55:11.344Z,98726.97
2023-04-18T19:58:34.214Z,98725.63
2023-04-18T20:01:36.985Z,98722.69
2023-04-18T20:04:40.540Z,98720.25
2023-04-18T20:07:43.423Z,98724.03
2023-04-18T20:10:46.057Z,98728.06
2023-04-18T20:13:52.084Z,98723.50
2023-04-18T20:16:55.888Z,98729.13
2023-04-18T20:19:59.629Z,98723.22
2023-04-18T20:23:03.565Z,98724.03
2023-04-18T20:26:06.587Z,98729.41
2023-04-18T20:29:11.250Z,98729.16
2023-04-18T20:32:14.411Z,98729.41
2023-04-18T20:35:17.026Z,98728.59
2023-04-18T20:38:20.101Z,98728.59
2023-04-18T20:41:24.251Z,98731.03
2023-04-18T20:44:30.061Z,98734.50
2023-04-18T20:47:33.361Z,98724.81
2023-04-18T20:50:36.028Z,98727.50
2023-04-18T20:53:38.784Z,98734.50
2023-04-18T20:56:41.585Z,98735.03
2023-04-18T20:59:45.737Z,98735.88
2023-04-18T21:02:50.524Z,98735.59
2023-04-18T21:05:53.637Z,98732.88
2023-04-18T21:08:56.259Z,98729.16
2023-04-18T21:11:59.321Z,98736.63
2023-04-18T21:15:05.409Z,98730.47
2023-04-18T21:18:08.097Z,98735.81
2023-04-18T21:21:11.693Z,98740.16
2023-04-18T21:24:14.764Z,98747.38
2023-04-18T21:27:17.619Z,98744.44
2023-04-18T21:30:22.503Z,98749.81
2023-04-18T21:33:26.142Z,98748.41
2023-04-18T21:36:30.618Z,98737.16
2023-04-18T21:39:33.285Z,98737.16
2023-04-18T21:42:36.478Z,98744.38
2023-04-18T21:45:40.583Z,98750.56
2023-04-18T21:48:45.357Z,98752.69
2023-04-18T21:51:48.850Z,98741.13
2023-04-18T21:54:51.492Z,98747.06
2023-04-18T21:57:54.224Z,98744.34
2023-04-18T22:00:58.436Z,98745.44
2023-04-18T22:04:01.495Z,98741.69
2023-04-18T22:07:04.491Z,98749.22
2023-04-18T22:10:08.098Z,98747.56
2023-04-18T22:13:11.342Z,98758.63
2023-04-18T22:16:15.385Z,98749.19
2023-04-18T22:19:19.162Z,98740.56
2023-04-18T22:22:21.807Z,98748.38
2023-04-18T22:25:24.428Z,98741.91
2023-04-18T22:28:27.989Z,98738.44
2023-04-18T22:31:32.101Z,98735.19
2023-04-18T22:34:34.826Z,98742.44
2023-04-18T22:37:37.438Z,98738.16
2023-04-18T22:40:40.111Z,98747.00
2023-04-18T22:43:42.942Z,98747.28
2023-04-18T22:46:48.083Z,98745.94
2023-04-18T22:49:51.699Z,98743.00
2023-04-18T22:52:54.426Z,98747.00
2023-04-18T22:55:57.027Z,98753.72
2023-04-18T22:58:59.598Z,98751.84
2023-04-18T23:02:03.616Z,98747.53
2023-04-18T23:05:08.078Z,98758.25
2023-04-18T23:08:11.892Z,98754.50
2023-04-18T23:11:14.616Z,98752.06
2023-04-18T23:14:17.309Z,98758.25
2023-04-18T23:17:22.050Z,98757.44
2023-04-18T23:20:24.899Z,98763.06
2023-04-18T23:23:27.587Z,98762.28
2023-04-18T23:26:30.224Z,98754.75
2023-04-18T23:29:36.848Z,98769.25
2023-04-18T23:32:40.936Z,98760.91
2023-04-18T23:35:43.705Z,98763.03
2023-04-18T23:38:46.883Z,98765.16
2023-04-18T23:41:50.166Z,98762.19
2023-04-18T23:44:52.831Z,98760.59
2023-04-18T23:47:56.819Z,98757.59
2023-04-18T23:50:59.516Z,98757.53
2023-04-18T23:54:02.145Z,98756.22
2023-04-18T23:57:04.859Z,98751.34
